Time;durP1;ratioP1;P1;durP2;ratioP2;P2;SDS_P1;SDS_P2;PMS_P1;PMS_P2;Temp;Humidity;BMP_temperature;BMP_pressure;BME280_temperature;BME280_humidity;BME280_pressure;Samples;Min_cycle;Max_cycle;Signal;HPM_P1;HPM_P2
2021/12/22 00:02:00;;;;;;;;;;;20.40;53.20;;;;;;4935307;29;19911;-77
2021/12/22 00:04:26;;;;;;;;;;;20.40;53.20;;;;;;4934938;29;19911;-76
2021/12/22 00:06:52;;;;;;;;;;;20.40;53.20;;;;;;4933634;29;19961;-77
2021/12/22 00:09:18;;;;;;;;;;;20.40;53.10;;;;;;4917819;29;19984;-76
2021/12/22 00:11:44;;;;;;;;;;;20.40;53.10;;;;;;4934436;29;19954;-77
2021/12/22 00:14:11;;;;;;;;;;;20.50;53.10;;;;;;4934293;29;20431;-76
2021/12/22 00:16:37;;;;;;;;;;;20.50;53.10;;;;;;4933058;29;19933;-77
2021/12/22 00:19:03;;;;;;;;;;;20.50;53.00;;;;;;4934545;29;19911;-76
2021/12/22 00:21:29;;;;;;;;;;;20.50;53.00;;;;;;4917502;29;20338;-76
2021/12/22 00:23:54;;;;;;;;;;;20.50;52.90;;;;;;4949562;23;19914;-75
2021/12/22 00:26:20;;;;;;;;;;;20.50;53.00;;;;;;4930771;28;19921;-74
2021/12/22 00:28:47;;;;;;;;;;;20.50;52.90;;;;;;4961293;28;19919;-74
2021/12/22 00:31:14;;;;;;;;;;;20.50;52.90;;;;;;4953202;29;19917;-75
2021/12/22 00:33:51;;;;;;;;;;;20.50;52.90;;;;;;4920536;29;20339;-75
2021/12/22 00:36:18;;;;;;;;;;;20.50;52.80;;;;;;4933887;29;19911;-75
2021/12/22 00:38:45;;;;;;;;;;;20.50;52.90;;;;;;4933489;29;20315;-75
2021/12/22 00:41:10;;;;;;;;;;;20.50;52.80;;;;;;4934441;29;19917;-74
2021/12/22 00:43:36;;;;;;;;;;;20.50;52.80;;;;;;4933099;29;19911;-74
2021/12/22 00:46:02;;;;;;;;;;;20.50;52.80;;;;;;4916708;29;19918;-75
2021/12/22 00:48:28;;;;;;;;;;;20.40;52.80;;;;;;4934290;29;19919;-74
2021/12/22 00:50:53;;;;;;;;;;;20.40;52.80;;;;;;4934008;29;19917;-74
2021/12/22 00:53:19;;;;;;;;;;;20.40;52.80;;;;;;4917392;29;19935;-75
2021/12/22 00:55:45;;;;;;;;;;;20.40;52.70;;;;;;4933814;29;19966;-75
2021/12/22 00:58:11;;;;;;;;;;;20.40;52.80;;;;;;4934417;29;19911;-74
2021/12/22 01:00:38;;;;;;;;;;;20.40;52.70;;;;;;4934602;29;19915;-75
2021/12/22 01:03:04;;;;;;;;;;;20.40;52.80;;;;;;4917948;29;20007;-75
2021/12/22 01:05:30;;;;;;;;;;;20.40;52.80;;;;;;4917933;29;19911;-75
2021/12/22 01:07:56;;;;;;;;;;;20.40;52.80;;;;;;4938294;29;20364;-75
2021/12/22 01:10:23;;;;;;;;;;;20.40;52.70;;;;;;4938174;29;19917;-75
2021/12/22 01:12:49;;;;;;;;;;;20.40;52.80;;;;;;4944317;29;19911;-75
2021/12/22 01:15:15;;;;;;;;;;;20.40;52.80;;;;;;4946605;29;20358;-75
2021/12/22 01:17:45;;;;;;;;;;;20.40;52.70;;;;;;4947665;29;19950;-75
2021/12/22 01:20:27;;;;;;;;;;;20.40;52.70;;;;;;4947422;29;19970;-74
2021/12/22 01:23:01;;;;;;;;;;;20.40;52.70;;;;;;4923807;29;19910;-75
2021/12/22 01:25:28;;;;;;;;;;;20.40;52.60;;;;;;4938147;29;19915;-75
2021/12/22 01:27:54;;;;;;;;;;;20.40;52.70;;;;;;4937294;29;20404;-75
2021/12/22 01:30:21;;;;;;;;;;;20.40;52.60;;;;;;4905614;29;19911;-75
2021/12/22 01:32:48;;;;;;;;;;;20.40;52.70;;;;;;4937822;29;19918;-75
2021/12/22 01:35:17;;;;;;;;;;;20.40;52.60;;;;;;4936631;29;19911;-75
2021/12/22 01:37:43;;;;;;;;;;;20.40;52.70;;;;;;4937213;29;19917;-75
2021/12/22 01:40:10;;;;;;;;;;;20.40;52.60;;;;;;4920120;29;19910;-75
2021/12/22 01:42:36;;;;;;;;;;;20.40;52.60;;;;;;4937161;29;20000;-75
2021/12/22 01:50:28;;;;;;;;;;;20.40;52.50;;;;;;4936199;29;20001;-75
2021/12/22 01:52:53;;;;;;;;;;;20.40;52.40;;;;;;4936881;29;20695;-75
2021/12/22 01:55:30;;;;;;;;;;;20.40;52.50;;;;;;4936398;29;19938;-74
2021/12/22 01:57:59;;;;;;;;;;;20.40;52.30;;;;;;4936744;29;19918;-75
2021/12/22 02:00:24;;;;;;;;;;;20.50;52.30;;;;;;4936620;29;19918;-75
2021/12/22 02:02:50;;;;;;;;;;;20.40;52.30;;;;;;4936452;29;19911;-75
2021/12/22 02:05:16;;;;;;;;;;;20.50;52.20;;;;;;4936130;29;19911;-74
2021/12/22 02:07:42;;;;;;;;;;;20.50;52.30;;;;;;4936660;29;19922;-75
2021/12/22 02:12:43;;;;;;;;;;;20.40;52.10;;;;;;4936351;29;20362;-75
2021/12/22 02:15:09;;;;;;;;;;;20.40;52.10;;;;;;4936178;29;19911;-75
2021/12/22 02:17:36;;;;;;;;;;;20.50;52.30;;;;;;4935668;29;19918;-75
2021/12/22 02:20:02;;;;;;;;;;;20.40;52.30;;;;;;4919474;29;19933;-75
2021/12/22 02:22:28;;;;;;;;;;;20.40;52.20;;;;;;4936188;29;19914;-75
2021/12/22 02:24:59;;;;;;;;;;;20.40;52.30;;;;;;4935600;29;20121;-75
2021/12/22 02:27:31;;;;;;;;;;;20.40;52.30;;;;;;4936031;29;19924;-74
2021/12/22 02:30:01;;;;;;;;;;;20.40;52.40;;;;;;4919401;29;19911;-75
2021/12/22 02:35:04;;;;;;;;;;;20.40;52.30;;;;;;4935994;29;19911;-74
2021/12/22 02:37:30;;;;;;;;;;;20.40;52.30;;;;;;4936037;29;19978;-74
2021/12/22 02:40:10;;;;;;;;;;;20.40;52.30;;;;;;4936017;29;19911;-74
2021/12/22 02:42:36;;;;;;;;;;;20.40;52.30;;;;;;4934844;29;19918;-75
2021/12/22 02:45:10;;;;;;;;;;;20.40;52.90;;;;;;4935484;29;20332;-75
2021/12/22 02:47:35;;;;;;;;;;;20.40;52.30;;;;;;4935355;29;20009;-75
2021/12/22 02:50:02;;;;;;;;;;;20.40;52.30;;;;;;4935824;29;19950;-75
2021/12/22 02:52:35;;;;;;;;;;;20.40;52.30;;;;;;4935983;29;19921;-75
2021/12/22 02:55:01;;;;;;;;;;;20.40;52.20;;;;;;4934155;29;19911;-75
2021/12/22 02:57:36;;;;;;;;;;;20.40;52.20;;;;;;4935653;29;20583;-74
2021/12/22 03:03:05;;;;;;;;;;;20.40;52.20;;;;;;4935223;29;19950;-75
2021/12/22 03:05:24;;;;;;;;;;;20.40;52.10;;;;;;4934781;29;19910;-74
2021/12/22 03:07:50;;;;;;;;;;;20.40;52.20;;;;;;4935090;29;19922;-75
2021/12/22 03:10:18;;;;;;;;;;;20.40;52.20;;;;;;4935527;29;20360;-74
2021/12/22 03:12:45;;;;;;;;;;;20.40;52.10;;;;;;4935177;29;19914;-74
2021/12/22 03:15:10;;;;;;;;;;;20.40;52.10;;;;;;4917833;29;19942;-74
2021/12/22 03:17:37;;;;;;;;;;;20.40;52.00;;;;;;4935079;29;19976;-74
2021/12/22 03:20:03;;;;;;;;;;;20.40;52.10;;;;;;4918256;29;19910;-74
2021/12/22 03:22:29;;;;;;;;;;;20.40;52.00;;;;;;4935099;29;20276;-74
2021/12/22 03:24:55;;;;;;;;;;;20.40;52.00;;;;;;4917488;29;19915;-74
2021/12/22 03:27:23;;;;;;;;;;;20.40;52.00;;;;;;4934739;29;20009;-74
2021/12/22 03:29:48;;;;;;;;;;;20.50;51.90;;;;;;4934414;29;19915;-74
2021/12/22 03:32:14;;;;;;;;;;;20.40;51.90;;;;;;4934968;29;19911;-74
2021/12/22 03:34:40;;;;;;;;;;;20.40;51.90;;;;;;4934663;29;19965;-74
2021/12/22 03:37:06;;;;;;;;;;;20.40;51.90;;;;;;4934748;29;20264;-74
2021/12/22 03:39:32;;;;;;;;;;;20.40;51.90;;;;;;4934978;29;19911;-74
2021/12/22 03:41:58;;;;;;;;;;;20.40;51.90;;;;;;4935041;29;19941;-74
2021/12/22 03:44:24;;;;;;;;;;;20.40;51.90;;;;;;4934342;29;20356;-75
2021/12/22 03:46:51;;;;;;;;;;;20.40;52.00;;;;;;4935040;29;19964;-75
2021/12/22 03:49:16;;;;;;;;;;;20.40;51.80;;;;;;4934628;29;20305;-74
2021/12/22 03:51:42;;;;;;;;;;;20.40;51.90;;;;;;4934718;29;20062;-74
2021/12/22 03:54:09;;;;;;;;;;;20.40;51.90;;;;;;4934865;29;20005;-74
2021/12/22 03:56:35;;;;;;;;;;;20.40;51.90;;;;;;4934410;29;20400;-74
2021/12/22 03:59:01;;;;;;;;;;;20.40;51.80;;;;;;4934469;29;19963;-74
2021/12/22 04:01:27;;;;;;;;;;;20.40;52.00;;;;;;4934505;29;19934;-74
2021/12/22 04:03:57;;;;;;;;;;;20.40;52.00;;;;;;4934466;29;20359;-75
2021/12/22 04:06:23;;;;;;;;;;;20.30;51.90;;;;;;4917154;29;19922;-74
2021/12/22 04:08:48;;;;;;;;;;;20.40;51.90;;;;;;4934242;29;19914;-74
2021/12/22 04:11:14;;;;;;;;;;;20.40;51.80;;;;;;4934642;29;20099;-75
2021/12/22 04:13:40;;;;;;;;;;;20.40;51.80;;;;;;4917438;29;19946;-75
2021/12/22 04:16:05;;;;;;;;;;;20.40;51.70;;;;;;4934405;29;19911;-75
2021/12/22 04:18:31;;;;;;;;;;;20.40;51.70;;;;;;4917336;29;19946;-75
2021/12/22 04:20:57;;;;;;;;;;;20.40;51.70;;;;;;4917436;29;20381;-74
2021/12/22 04:23:22;;;;;;;;;;;20.40;51.80;;;;;;4934160;29;19910;-74
2021/12/22 04:25:48;;;;;;;;;;;20.30;51.90;;;;;;4933926;29;19922;-75
2021/12/22 04:28:13;;;;;;;;;;;20.40;51.70;;;;;;4934216;29;20367;-74
2021/12/22 04:30:41;;;;;;;;;;;20.30;51.60;;;;;;4934830;29;20359;-74
2021/12/22 04:33:07;;;;;;;;;;;20.40;51.60;;;;;;4934505;29;20339;-74
2021/12/22 04:35:33;;;;;;;;;;;20.40;51.60;;;;;;4901171;29;19911;-75
2021/12/22 04:37:59;;;;;;;;;;;20.40;51.60;;;;;;4934042;29;20368;-74
2021/12/22 04:40:25;;;;;;;;;;;20.40;51.70;;;;;;4934263;29;20005;-74
2021/12/22 04:42:50;;;;;;;;;;;20.40;51.70;;;;;;4920529;29;19998;-74
2021/12/22 04:45:16;;;;;;;;;;;20.40;51.70;;;;;;4937749;29;20372;-74
2021/12/22 04:47:42;;;;;;;;;;;20.40;51.60;;;;;;4937885;29;19922;-74
2021/12/22 04:50:13;;;;;;;;;;;20.40;51.70;;;;;;4937853;29;19915;-74
2021/12/22 04:52:53;;;;;;;;;;;20.40;51.60;;;;;;4937839;29;19917;-74
2021/12/22 04:55:19;;;;;;;;;;;20.40;51.60;;;;;;4937672;29;19918;-74
2021/12/22 04:57:45;;;;;;;;;;;20.40;51.60;;;;;;4920835;29;20368;-75
2021/12/22 05:00:11;;;;;;;;;;;20.40;52.20;;;;;;4937631;29;20331;-75
2021/12/22 05:02:37;;;;;;;;;;;20.40;51.70;;;;;;4920531;29;20491;-75
2021/12/22 05:05:04;;;;;;;;;;;20.40;51.50;;;;;;4919981;29;20002;-74
2021/12/22 05:07:29;;;;;;;;;;;20.40;51.50;;;;;;4937443;29;20003;-74
2021/12/22 05:09:55;;;;;;;;;;;20.40;51.30;;;;;;4937367;29;19999;-75
2021/12/22 05:12:21;;;;;;;;;;;20.40;51.60;;;;;;4937560;29;19910;-74
2021/12/22 05:14:49;;;;;;;;;;;20.40;51.50;;;;;;4919996;29;19918;-74
2021/12/22 05:17:23;;;;;;;;;;;20.40;51.60;;;;;;4937434;29;19917;-74
2021/12/22 05:19:49;;;;;;;;;;;20.40;51.50;;;;;;4937023;29;19925;-75
2021/12/22 05:22:14;;;;;;;;;;;20.40;51.60;;;;;;4920621;29;19911;-74
2021/12/22 05:24:40;;;;;;;;;;;20.40;51.60;;;;;;4936862;29;19914;-75
2021/12/22 05:27:11;;;;;;;;;;;20.40;51.30;;;;;;4904716;29;19915;-75
2021/12/22 05:29:38;;;;;;;;;;;20.40;51.40;;;;;;4920152;29;19914;-74
2021/12/22 05:32:04;;;;;;;;;;;20.30;51.60;;;;;;4937280;29;19917;-74
2021/12/22 05:34:30;;;;;;;;;;;20.40;51.60;;;;;;4936438;29;19914;-74
2021/12/22 05:36:56;;;;;;;;;;;20.40;51.60;;;;;;4936929;29;19916;-74
2021/12/22 05:39:21;;;;;;;;;;;20.40;51.60;;;;;;4920059;29;19981;-74
2021/12/22 05:41:47;;;;;;;;;;;20.30;51.60;;;;;;4936855;29;19938;-74
2021/12/22 05:44:13;;;;;;;;;;;20.40;51.60;;;;;;4936683;29;19910;-74
2021/12/22 05:46:38;;;;;;;;;;;20.40;51.70;;;;;;4937136;29;19917;-74
2021/12/22 05:49:04;;;;;;;;;;;20.30;51.40;;;;;;4936764;29;19918;-74
2021/12/22 05:51:33;;;;;;;;;;;20.40;51.60;;;;;;4936978;29;20253;-75
2021/12/22 05:53:59;;;;;;;;;;;20.40;51.60;;;;;;4918887;29;19914;-75
2021/12/22 05:56:27;;;;;;;;;;;20.30;51.50;;;;;;4936563;29;19911;-74
2021/12/22 05:58:52;;;;;;;;;;;20.30;51.40;;;;;;4936936;29;19946;-74
2021/12/22 06:01:18;;;;;;;;;;;20.30;51.60;;;;;;4904102;29;19965;-75
2021/12/22 06:03:44;;;;;;;;;;;20.30;51.60;;;;;;4936400;29;20344;-74
2021/12/22 06:06:10;;;;;;;;;;;20.30;51.50;;;;;;4936302;29;19917;-74
2021/12/22 06:08:36;;;;;;;;;;;20.40;51.50;;;;;;4936558;29;19915;-74
2021/12/22 06:11:01;;;;;;;;;;;20.30;51.60;;;;;;4936448;29;19981;-74
2021/12/22 06:13:27;;;;;;;;;;;20.30;51.30;;;;;;4936388;29;20009;-75
2021/12/22 06:15:52;;;;;;;;;;;20.30;51.40;;;;;;4935799;29;19918;-74
2021/12/22 06:18:18;;;;;;;;;;;20.40;51.30;;;;;;4936183;29;19962;-74
2021/12/22 06:20:44;;;;;;;;;;;20.40;51.60;;;;;;4934979;29;20247;-74
2021/12/22 06:23:11;;;;;;;;;;;20.40;51.40;;;;;;4903663;29;19918;-74
2021/12/22 06:25:36;;;;;;;;;;;20.40;51.20;;;;;;4971335;23;19997;-77
2021/12/22 06:28:02;;;;;;;;;;;20.30;51.30;;;;;;4939718;28;19922;-77
2021/12/22 06:30:28;;;;;;;;;;;20.40;51.20;;;;;;4922309;29;20279;-76
2021/12/22 06:32:54;;;;;;;;;;;20.40;51.50;;;;;;4922429;29;19910;-76
2021/12/22 06:35:20;;;;;;;;;;;20.40;51.30;;;;;;4954758;29;20013;-77
2021/12/22 06:37:46;;;;;;;;;;;20.40;51.20;;;;;;4937981;29;19911;-77
2021/12/22 06:40:12;;;;;;;;;;;20.40;51.30;;;;;;4955005;28;19953;-76
2021/12/22 06:42:38;;;;;;;;;;;20.40;51.30;;;;;;4921953;29;20374;-76
2021/12/22 06:45:05;;;;;;;;;;;20.40;51.90;;;;;;4954473;28;19965;-76
2021/12/22 06:47:31;;;;;;;;;;;20.40;51.40;;;;;;4937737;29;20294;-76
2021/12/22 06:49:57;;;;;;;;;;;20.40;51.40;;;;;;4955362;29;19989;-77
2021/12/22 06:52:22;;;;;;;;;;;20.40;51.20;;;;;;4955286;29;19957;-76
2021/12/22 06:54:48;;;;;;;;;;;20.30;51.30;;;;;;4954560;29;19910;-76
2021/12/22 06:57:19;;;;;;;;;;;20.40;51.30;;;;;;4955048;28;19934;-77
2021/12/22 06:59:45;;;;;;;;;;;20.30;51.30;;;;;;4954685;29;19918;-76
2021/12/22 07:02:11;;;;;;;;;;;20.30;51.20;;;;;;4954646;29;19910;-77
2021/12/22 07:04:36;;;;;;;;;;;20.30;51.40;;;;;;4954124;28;19918;-76
2021/12/22 07:07:02;;;;;;;;;;;20.30;51.30;;;;;;4954644;28;19921;-77
2021/12/22 07:09:27;;;;;;;;;;;20.30;51.40;;;;;;4954392;29;19914;-76
2021/12/22 07:11:53;;;;;;;;;;;20.30;51.40;;;;;;4937461;29;19910;-76
2021/12/22 07:14:19;;;;;;;;;;;20.30;51.30;;;;;;4954076;28;20006;-76
2021/12/22 07:16:45;;;;;;;;;;;20.40;51.10;;;;;;4937298;29;20371;-76
2021/12/22 07:19:11;;;;;;;;;;;20.30;51.20;;;;;;4921726;29;19954;-77
2021/12/22 07:21:37;;;;;;;;;;;20.40;51.30;;;;;;4921426;29;19956;-77
2021/12/22 07:24:03;;;;;;;;;;;20.30;51.30;;;;;;4954244;29;20005;-76
2021/12/22 07:26:29;;;;;;;;;;;20.30;51.30;;;;;;4953832;29;19918;-76
2021/12/22 07:28:54;;;;;;;;;;;20.30;51.20;;;;;;4954211;29;19921;-76
2021/12/22 07:31:20;;;;;;;;;;;20.30;51.30;;;;;;4937006;29;20001;-76
2021/12/22 07:34:21;;;;;;;;;;;20.30;51.30;;;;;;4954327;28;20256;-76
2021/12/22 07:36:54;;;;;;;;;;;20.30;51.10;;;;;;4932544;29;20399;-76
2021/12/22 07:39:20;;;;;;;;;;;20.30;51.30;;;;;;4950818;29;19910;-77
2021/12/22 07:41:45;;;;;;;;;;;20.30;51.30;;;;;;4936876;29;19914;-77
2021/12/22 07:44:12;;;;;;;;;;;20.30;51.30;;;;;;4936937;29;19918;-77
2021/12/22 07:46:38;;;;;;;;;;;20.30;51.10;;;;;;4920969;29;19973;-77
2021/12/22 07:49:04;;;;;;;;;;;20.30;51.20;;;;;;4936864;29;19914;-75
2021/12/22 07:51:29;;;;;;;;;;;20.30;51.20;;;;;;4954094;28;19910;-76
2021/12/22 07:53:55;;;;;;;;;;;20.30;51.10;;;;;;4955665;29;19910;-75
2021/12/22 07:56:21;;;;;;;;;;;20.30;51.20;;;;;;4941253;29;19911;-76
2021/12/22 07:58:47;;;;;;;;;;;20.30;51.10;;;;;;4954544;29;19974;-76
2021/12/22 08:01:13;;;;;;;;;;;20.40;51.10;;;;;;4936757;29;20040;-76
2021/12/22 08:03:39;;;;;;;;;;;20.40;51.20;;;;;;4953937;28;19957;-76
2021/12/22 08:06:04;;;;;;;;;;;20.30;51.10;;;;;;4936091;29;19921;-76
2021/12/22 08:08:30;;;;;;;;;;;20.30;51.20;;;;;;4936366;29;19930;-76
2021/12/22 08:10:56;;;;;;;;;;;20.30;51.10;;;;;;4954117;29;19952;-77
2021/12/22 08:13:21;;;;;;;;;;;20.40;51.10;;;;;;4953900;29;19965;-76
2021/12/22 08:15:47;;;;;;;;;;;20.40;50.90;;;;;;4937490;29;19910;-77
2021/12/22 08:18:13;;;;;;;;;;;20.30;51.10;;;;;;4942954;29;19917;-77
2021/12/22 08:20:39;;;;;;;;;;;20.30;50.80;;;;;;4959899;28;20256;-77
2021/12/22 08:23:05;;;;;;;;;;;20.30;50.90;;;;;;4959921;28;19911;-77
2021/12/22 08:25:31;;;;;;;;;;;20.30;51.10;;;;;;4959262;28;20371;-77
2021/12/22 08:27:56;;;;;;;;;;;20.30;50.90;;;;;;4959960;29;19921;-77
2021/12/22 08:30:22;;;;;;;;;;;20.30;51.00;;;;;;4942797;29;19978;-77
2021/12/22 08:32:48;;;;;;;;;;;20.30;51.00;;;;;;4959792;29;20394;-77
2021/12/22 08:35:16;;;;;;;;;;;20.40;51.00;;;;;;4926288;29;19958;-76
2021/12/22 08:40:26;;;;;;;;;;;20.40;51.10;;;;;;4959797;28;19918;-76
2021/12/22 08:42:52;;;;;;;;;;;20.40;51.10;;;;;;4942788;29;19914;-77
2021/12/22 08:45:18;;;;;;;;;;;20.30;51.10;;;;;;4942268;29;20359;-76
2021/12/22 08:47:44;;;;;;;;;;;20.30;50.90;;;;;;4942658;29;19914;-76
2021/12/22 08:50:11;;;;;;;;;;;20.30;50.90;;;;;;4959976;28;20430;-76
2021/12/22 08:52:37;;;;;;;;;;;20.40;51.00;;;;;;4959648;28;19914;-76
2021/12/22 08:55:03;;;;;;;;;;;20.40;51.10;;;;;;4926336;29;19914;-76
2021/12/22 08:57:29;;;;;;;;;;;20.40;50.80;;;;;;4942448;29;19910;-76
2021/12/22 09:00:00;;;;;;;;;;;20.40;51.00;;;;;;4942611;29;19916;-76
2021/12/22 09:02:26;;;;;;;;;;;20.30;50.90;;;;;;4959376;29;20380;-77
2021/12/22 09:04:51;;;;;;;;;;;20.40;51.10;;;;;;4942052;29;19964;-76
2021/12/22 09:07:17;;;;;;;;;;;20.30;51.10;;;;;;4942168;29;20292;-76
2021/12/22 09:09:44;;;;;;;;;;;20.30;51.10;;;;;;4959682;29;19917;-77
2021/12/22 09:12:09;;;;;;;;;;;20.30;51.00;;;;;;4959735;29;20368;-76
2021/12/22 09:14:35;;;;;;;;;;;20.40;51.10;;;;;;4959097;28;19961;-77
2021/12/22 09:17:01;;;;;;;;;;;20.40;51.00;;;;;;4959769;28;20315;-77
2021/12/22 09:19:26;;;;;;;;;;;20.30;51.10;;;;;;4959390;29;20287;-77
2021/12/22 09:21:52;;;;;;;;;;;20.30;51.00;;;;;;4959440;29;19915;-76
2021/12/22 09:24:18;;;;;;;;;;;20.30;51.10;;;;;;4959033;28;19910;-77
2021/12/22 09:26:45;;;;;;;;;;;20.40;51.10;;;;;;4959108;28;19914;-76
2021/12/22 09:29:11;;;;;;;;;;;20.30;50.90;;;;;;4956342;29;19921;-76
2021/12/22 09:31:37;;;;;;;;;;;20.40;50.80;;;;;;4956365;29;20009;-76
2021/12/22 09:34:03;;;;;;;;;;;20.40;50.80;;;;;;4956250;28;20393;-76
2021/12/22 09:36:29;;;;;;;;;;;20.40;50.80;;;;;;4955866;29;19910;-76
2021/12/22 09:38:55;;;;;;;;;;;20.40;50.80;;;;;;4939146;29;19910;-77
2021/12/22 09:41:21;;;;;;;;;;;20.40;50.60;;;;;;4938972;29;20389;-77
2021/12/22 09:43:47;;;;;;;;;;;20.40;50.90;;;;;;4956240;28;19950;-77
2021/12/22 09:46:16;;;;;;;;;;;20.40;50.80;;;;;;4938756;29;20291;-77
2021/12/22 09:48:52;;;;;;;;;;;20.40;50.60;;;;;;4955952;28;20330;-77
2021/12/22 09:53:47;;;;;;;;;;;20.40;50.80;;;;;;4956150;29;19910;-77
2021/12/22 09:56:14;;;;;;;;;;;20.40;50.90;;;;;;4955717;29;20393;-77
2021/12/22 09:58:41;;;;;;;;;;;20.40;51.00;;;;;;4955825;29;19910;-76
2021/12/22 10:01:07;;;;;;;;;;;20.40;50.90;;;;;;4955764;29;20407;-76
2021/12/22 10:03:34;;;;;;;;;;;20.40;50.90;;;;;;4955866;29;19910;-77
2021/12/22 10:05:59;;;;;;;;;;;20.40;51.10;;;;;;4938342;29;19911;-76
2021/12/22 10:08:26;;;;;;;;;;;20.40;51.00;;;;;;4955755;28;19961;-77
2021/12/22 10:10:55;;;;;;;;;;;20.40;50.90;;;;;;4955842;29;20384;-77
2021/12/22 10:13:23;;;;;;;;;;;20.40;51.00;;;;;;4955536;29;20476;-77
2021/12/22 10:15:48;;;;;;;;;;;20.40;51.10;;;;;;4955256;29;19910;-77
2021/12/22 10:18:24;;;;;;;;;;;20.40;51.10;;;;;;4955540;28;19914;-77
2021/12/22 10:20:52;;;;;;;;;;;20.40;50.70;;;;;;4938371;29;20013;-77
2021/12/22 10:23:26;;;;;;;;;;;20.40;51.10;;;;;;4955738;29;19911;-77
2021/12/22 10:25:57;;;;;;;;;;;20.40;51.10;;;;;;4954805;28;19918;-77
2021/12/22 10:28:24;;;;;;;;;;;20.40;51.80;;;;;;4938049;29;20544;-77
2021/12/22 10:30:55;;;;;;;;;;;20.40;51.00;;;;;;4955474;28;19917;-77
2021/12/22 10:33:22;;;;;;;;;;;20.40;51.00;;;;;;4955691;29;19910;-77
2021/12/22 10:35:52;;;;;;;;;;;20.40;51.10;;;;;;4937664;29;20435;-77
2021/12/22 10:38:20;;;;;;;;;;;20.40;51.00;;;;;;4954872;28;19914;-77
2021/12/22 10:40:46;;;;;;;;;;;20.40;51.20;;;;;;4937543;29;19914;-77
2021/12/22 10:43:17;;;;;;;;;;;20.30;51.20;;;;;;4954801;29;19914;-77
2021/12/22 10:45:44;;;;;;;;;;;20.40;51.30;;;;;;4954963;28;20005;-77
2021/12/22 10:50:56;;;;;;;;;;;20.40;51.30;;;;;;4954982;29;20383;-77
2021/12/22 10:53:22;;;;;;;;;;;20.30;51.20;;;;;;4954778;29;19918;-77
2021/12/22 10:55:49;;;;;;;;;;;20.40;51.10;;;;;;4954483;29;20338;-77
2021/12/22 10:58:19;;;;;;;;;;;20.40;51.10;;;;;;4954634;29;19957;-77
2021/12/22 11:00:58;;;;;;;;;;;20.40;51.00;;;;;;4938172;29;19973;-77
2021/12/22 11:03:32;;;;;;;;;;;20.40;50.80;;;;;;4937438;29;19917;-77
2021/12/22 11:05:57;;;;;;;;;;;20.40;50.90;;;;;;4937162;29;19914;-77
2021/12/22 11:08:24;;;;;;;;;;;20.40;50.90;;;;;;4954735;29;20018;-76
2021/12/22 11:10:52;;;;;;;;;;;20.40;50.90;;;;;;4937398;29;20054;-77
2021/12/22 11:13:22;;;;;;;;;;;20.50;50.70;;;;;;4954547;29;19917;-77
2021/12/22 11:15:48;;;;;;;;;;;20.40;50.90;;;;;;4936875;29;19917;-77
2021/12/22 11:18:26;;;;;;;;;;;20.40;51.00;;;;;;4954339;29;20314;-77
2021/12/22 11:21:12;;;;;;;;;;;20.40;51.00;;;;;;4954399;29;20284;-77
2021/12/22 11:23:38;;;;;;;;;;;20.50;50.90;;;;;;4937308;29;19914;-77
2021/12/22 11:26:04;;;;;;;;;;;20.40;50.90;;;;;;4936688;29;19915;-77
2021/12/22 11:28:30;;;;;;;;;;;20.40;51.00;;;;;;4936960;29;19914;-77
2021/12/22 11:30:57;;;;;;;;;;;20.40;51.10;;;;;;4937211;29;19918;-77
2021/12/22 11:33:27;;;;;;;;;;;20.40;51.00;;;;;;4937101;29;19922;-77
2021/12/22 11:35:55;;;;;;;;;;;20.40;51.10;;;;;;4953872;28;20091;-77
2021/12/22 11:38:20;;;;;;;;;;;20.40;51.00;;;;;;4954024;29;19910;-77
2021/12/22 11:40:54;;;;;;;;;;;20.40;51.10;;;;;;4954040;29;19920;-77
2021/12/22 11:43:20;;;;;;;;;;;20.40;51.00;;;;;;4938032;29;19916;-77
2021/12/22 11:45:47;;;;;;;;;;;20.40;51.10;;;;;;4953679;28;19997;-77
2021/12/22 11:48:14;;;;;;;;;;;20.40;51.10;;;;;;4954027;28;20018;-76
2021/12/22 11:50:44;;;;;;;;;;;20.40;51.10;;;;;;4953287;28;20335;-76
2021/12/22 11:53:09;;;;;;;;;;;20.40;51.10;;;;;;4953985;29;19910;-77
2021/12/22 11:55:42;;;;;;;;;;;20.40;51.00;;;;;;4953217;28;20416;-77
2021/12/22 11:58:17;;;;;;;;;;;20.40;51.10;;;;;;4954183;29;19910;-77
2021/12/22 12:00:45;;;;;;;;;;;20.40;50.80;;;;;;4936655;29;19910;-77
2021/12/22 12:03:21;;;;;;;;;;;20.40;51.00;;;;;;4954069;29;19961;-77
2021/12/22 12:06:07;;;;;;;;;;;20.40;51.10;;;;;;4953322;29;19961;-76
2021/12/22 12:08:34;;;;;;;;;;;20.40;51.10;;;;;;4949837;28;20005;-77
2021/12/22 12:11:00;;;;;;;;;;;20.40;51.10;;;;;;4953711;28;20393;-76
2021/12/22 12:13:35;;;;;;;;;;;20.40;51.10;;;;;;4920831;29;20013;-77
2021/12/22 12:21:49;;;;;;;;;;;20.30;51.20;;;;;;4936644;29;19918;-77
2021/12/22 12:24:40;;;;;;;;;;;20.30;51.10;;;;;;4953061;29;19910;-77
2021/12/22 12:27:25;;;;;;;;;;;20.40;51.10;;;;;;4894842;28;20368;-79
2021/12/22 12:30:00;;;;;;;;;;;20.40;50.90;;;;;;4952370;29;20009;-79
2021/12/22 12:32:48;;;;;;;;;;;20.40;51.00;;;;;;4920714;29;20383;-79
2021/12/22 12:35:17;;;;;;;;;;;20.40;51.10;;;;;;4928707;29;19915;-81
2021/12/22 12:37:55;;;;;;;;;;;20.40;51.00;;;;;;4934581;29;19911;-81
2021/12/22 12:40:21;;;;;;;;;;;20.40;50.90;;;;;;4934652;29;19914;-81
2021/12/22 12:42:56;;;;;;;;;;;20.40;50.80;;;;;;4933606;29;19992;-81
2021/12/22 12:45:41;;;;;;;;;;;20.40;51.00;;;;;;4933855;29;20371;-80
2021/12/22 12:48:26;;;;;;;;;;;20.40;50.90;;;;;;4933451;29;20142;-81
2021/12/22 12:51:10;;;;;;;;;;;20.40;50.80;;;;;;4933233;29;19910;-81
2021/12/22 12:53:45;;;;;;;;;;;20.40;51.00;;;;;;4934169;29;20013;-80
2021/12/22 12:56:15;;;;;;;;;;;20.40;50.90;;;;;;4932942;29;20364;-81
2021/12/22 12:58:52;;;;;;;;;;;20.40;51.10;;;;;;4933380;29;20312;-81
2021/12/22 13:01:17;;;;;;;;;;;20.30;51.00;;;;;;4933111;29;19911;-81
2021/12/22 13:03:47;;;;;;;;;;;20.40;51.10;;;;;;4920798;29;19918;-81
2021/12/22 13:06:13;;;;;;;;;;;20.30;50.90;;;;;;4936292;29;19918;-81
2021/12/22 13:08:38;;;;;;;;;;;20.30;50.90;;;;;;4936726;29;19919;-81
2021/12/22 13:11:14;;;;;;;;;;;20.30;51.10;;;;;;4920799;29;20380;-80
2021/12/22 13:15:45;;;;;;;;;;;20.30;51.10;;;;;;4936950;29;19911;-80
2021/12/22 13:16:38;;;;;;;;;;;20.30;51.00;;;;;;4921312;29;20069;-80
2021/12/22 13:19:04;;;;;;;;;;;20.30;50.90;;;;;;4938309;29;19911;-81
2021/12/22 13:21:30;;;;;;;;;;;20.40;50.90;;;;;;4937844;29;20018;-80
2021/12/22 13:23:55;;;;;;;;;;;20.40;51.00;;;;;;4920633;29;20287;-80
2021/12/22 13:26:21;;;;;;;;;;;20.30;50.90;;;;;;4935805;29;19921;-79
2021/12/22 13:28:46;;;;;;;;;;;20.40;51.00;;;;;;4920374;29;19918;-80
2021/12/22 13:31:12;;;;;;;;;;;20.30;51.00;;;;;;4937452;29;19915;-80
2021/12/22 13:33:39;;;;;;;;;;;20.30;50.90;;;;;;4937311;29;20471;-80
2021/12/22 13:36:11;;;;;;;;;;;20.40;51.00;;;;;;4937062;29;19910;-80
2021/12/22 13:38:42;;;;;;;;;;;20.30;50.90;;;;;;4937527;29;19910;-79
2021/12/22 13:41:14;;;;;;;;;;;20.40;51.00;;;;;;4937616;29;19938;-80
2021/12/22 13:43:39;;;;;;;;;;;20.30;51.00;;;;;;4937516;29;20347;-80
2021/12/22 13:46:11;;;;;;;;;;;20.30;51.00;;;;;;4919774;29;19910;-80
2021/12/22 13:48:37;;;;;;;;;;;20.30;51.60;;;;;;4936156;29;20009;-80
2021/12/22 13:51:05;;;;;;;;;;;20.30;51.00;;;;;;4920419;29;20371;-79
2021/12/22 13:53:31;;;;;;;;;;;20.30;50.90;;;;;;4920358;29;19934;-80
2021/12/22 13:55:58;;;;;;;;;;;20.30;51.00;;;;;;4920132;29;19974;-80
2021/12/22 13:58:37;;;;;;;;;;;20.30;50.90;;;;;;4935875;29;19918;-80
2021/12/22 14:01:17;;;;;;;;;;;20.30;50.80;;;;;;4920112;29;20006;-80
2021/12/22 14:03:43;;;;;;;;;;;20.30;50.80;;;;;;4935884;29;19933;-80
2021/12/22 14:06:10;;;;;;;;;;;20.30;50.80;;;;;;4935424;29;19934;-80
2021/12/22 14:08:36;;;;;;;;;;;20.40;50.80;;;;;;4919445;29;20299;-80
2021/12/22 14:11:02;;;;;;;;;;;20.30;50.70;;;;;;4935510;29;19942;-81
2021/12/22 14:13:29;;;;;;;;;;;20.40;50.80;;;;;;4937464;29;19910;-80
2021/12/22 14:15:55;;;;;;;;;;;20.30;50.80;;;;;;4938599;29;19910;-80
2021/12/22 14:18:21;;;;;;;;;;;20.30;50.70;;;;;;4923608;29;19973;-80
2021/12/22 14:20:47;;;;;;;;;;;20.40;50.80;;;;;;4938729;29;20295;-80
2021/12/22 14:23:12;;;;;;;;;;;20.30;50.70;;;;;;4922553;29;19911;-80
2021/12/22 14:25:39;;;;;;;;;;;20.30;50.80;;;;;;4923182;29;19925;-80
2021/12/22 14:28:18;;;;;;;;;;;20.30;50.80;;;;;;4937388;29;19915;-79
2021/12/22 14:30:43;;;;;;;;;;;20.30;50.90;;;;;;4921677;29;19911;-79
2021/12/22 14:33:16;;;;;;;;;;;20.30;50.90;;;;;;4920643;29;19910;-79
2021/12/22 14:35:53;;;;;;;;;;;20.30;50.90;;;;;;4937614;29;19911;-79
2021/12/22 14:38:20;;;;;;;;;;;20.30;50.90;;;;;;4906094;29;19911;-79
2021/12/22 14:40:53;;;;;;;;;;;20.30;50.90;;;;;;4921542;29;19910;-79
2021/12/22 14:43:19;;;;;;;;;;;20.30;50.90;;;;;;4937085;29;19962;-78
2021/12/22 14:45:49;;;;;;;;;;;20.30;50.90;;;;;;4920593;29;19910;-79
2021/12/22 14:48:16;;;;;;;;;;;20.30;50.90;;;;;;4904859;29;19915;-79